Hyalite Weather Station

This weather station provides temperature, wind speed, gust or max wind speed, and wind direction at 9982ft near the summit of Flanders Mountain. This data can be used with temperature and precipitation data from the Shower Falls SNOTEL site. If the data has not been updated recently you can view it directly on datagarrison.com

Elevation
9982ft
Jump to table bottom
Date Time Temperature
deg F
RH, % Wind Speed Wind Gust Wind Direction
03/18/19 08:00 16.6 83 6 14 N - 21
03/18/19 07:00 15.6 83 9 16 N - 13
03/18/19 06:00 14.8 86 11 18 N - 17
03/18/19 05:00 15.4 83 11 18 N - 20
03/18/19 04:00 15.4 82 10 16 N - 21
03/18/19 03:00 15.6 80 8 14 N - 13
03/18/19 02:00 16.2 84 9 12 N - 358
03/18/19 01:00 16.6 83 8 13 N - 11
03/18/19 00:00 16.8 84 5 12 N - 18
03/17/19 23:00 18.0 80 7 10 NE - 24
03/17/19 22:00 17.9 78 7 11 N - 11
03/17/19 21:00 19.4 75 7 11 N - 350
03/17/19 20:00 19.2 75 7 11 NW - 300
03/17/19 19:00 19.5 68 7 11 W - 271
03/17/19 18:00 21.0 62 8 12 W - 271
03/17/19 17:00 23.0 59 6 13 NW - 298
03/17/19 16:00 23.2 56 6 12 NW - 326
03/17/19 15:00 24.0 60 6 10 NW - 305
03/17/19 14:00 24.7 60 6 11 NW - 303
03/17/19 13:00 25.5 60 3 9 W - 284
03/17/19 12:00 25.6 58 3 10 SW - 241
03/17/19 11:00 22.7 62 3 10 W - 278
03/17/19 10:00 21.2 64 2 6 NW - 329
03/17/19 09:00 19.9 64 6 10 NW - 293
03/17/19 08:00 17.9 67 7 9 W - 272
03/17/19 07:00 17.5 65 7 11 W - 279
03/17/19 06:00 18.1 61 9 14 W - 271
03/17/19 05:00 18.3 63 11 16 W - 265
03/17/19 04:00 18.9 61 11 17 W - 267
03/17/19 03:00 19.9 58 11 16 W - 260
03/17/19 02:00 19.8 57 11 16 W - 265
03/17/19 01:00 20.4 56 10 15 W - 267
03/17/19 00:00 20.0 56 10 14 W - 278
03/16/19 23:00 20.8 53 11 17 W - 271
03/16/19 22:00 21.0 51 13 20 W - 267
03/16/19 21:00 21.3 42 14 20 W - 267
03/16/19 20:00 21.5 37 13 20 W - 271
03/16/19 19:00 20.8 53 10 15 W - 260
03/16/19 18:00 21.5 66 9 13 W - 258
03/16/19 17:00 25.0 66 9 14 W - 256
03/16/19 16:00 24.4 67 9 14 W - 251
03/16/19 15:00 25.2 66 8 13 W - 251
03/16/19 14:00 24.7 67 7 13 W - 251
03/16/19 13:00 24.4 65 6 10 W - 248
03/16/19 12:00 22.6 68 5 10 SW - 244
03/16/19 11:00 21.4 66 4 9 SW - 240
03/16/19 10:00 19.8 62 5 9 SW - 243
03/16/19 09:00 17.8 69 7 15 W - 272
03/16/19 08:00 16.5 72 10 14 W - 282
03/16/19 07:00 16.1 68 10 17 W - 270